createdAt,value
2018-07-21T00:00:15.689Z,2.40
2018-07-21T00:02:44.645Z,2.00
2018-07-21T00:05:12.947Z,2.30
2018-07-21T00:07:41.366Z,3.40
2018-07-21T00:10:09.673Z,6.77
2018-07-21T00:12:38.043Z,7.13
2018-07-21T00:15:06.394Z,8.70
2018-07-21T00:17:34.791Z,5.90
2018-07-21T00:20:03.115Z,10.13
2018-07-21T00:22:31.430Z,10.50
2018-07-21T00:24:59.767Z,8.97
2018-07-21T00:27:28.079Z,9.90
2018-07-21T00:29:56.411Z,10.50
2018-07-21T00:32:24.746Z,10.30
2018-07-21T00:34:53.075Z,9.43
2018-07-21T00:37:21.402Z,8.17
2018-07-21T00:39:49.713Z,9.50
2018-07-21T00:42:18.019Z,9.17
2018-07-21T00:44:46.392Z,8.30
2018-07-21T00:47:14.698Z,8.00
2018-07-21T00:49:43.086Z,7.63
2018-07-21T00:52:11.482Z,7.67
2018-07-21T00:54:39.850Z,7.67
2018-07-21T00:57:08.350Z,7.20
2018-07-21T00:59:36.651Z,7.13
2018-07-21T01:02:04.965Z,6.30
2018-07-21T01:04:33.274Z,6.53
2018-07-21T01:07:01.591Z,6.03
2018-07-21T01:09:29.902Z,6.50
2018-07-21T01:11:58.315Z,6.20
2018-07-21T01:14:26.612Z,5.67
2018-07-21T01:16:54.952Z,5.27
2018-07-21T01:19:23.259Z,5.50
2018-07-21T01:21:51.579Z,5.30
2018-07-21T01:24:19.882Z,5.23
2018-07-21T01:26:48.220Z,4.47
2018-07-21T01:29:16.603Z,4.37
2018-07-21T01:31:44.955Z,4.57
2018-07-21T01:34:13.246Z,4.27
2018-07-21T01:36:41.595Z,4.20
2018-07-21T01:39:11.439Z,4.40
2018-07-21T01:41:40.107Z,3.80
2018-07-21T01:44:08.402Z,3.50
2018-07-21T01:46:36.474Z,3.97
2018-07-21T01:49:04.847Z,3.77
2018-07-21T01:51:33.109Z,3.00
2018-07-21T01:54:01.395Z,3.60
2018-07-21T01:56:29.695Z,3.27
2018-07-21T01:58:58.018Z,3.30
2018-07-21T02:01:26.314Z,3.00
2018-07-21T02:03:54.676Z,3.27
2018-07-21T02:06:22.974Z,2.73
2018-07-21T02:08:51.280Z,2.77
2018-07-21T02:11:19.738Z,2.40
2018-07-21T02:13:48.062Z,2.87
2018-07-21T02:16:16.363Z,2.47
2018-07-21T02:18:44.712Z,2.80
2018-07-21T02:21:13.007Z,2.70
2018-07-21T02:23:41.385Z,2.60
2018-07-21T02:26:09.663Z,2.47
2018-07-21T02:28:37.959Z,3.00
2018-07-21T02:31:06.246Z,2.50
2018-07-21T02:33:34.573Z,2.53
2018-07-21T02:36:02.590Z,2.27
2018-07-21T02:38:30.902Z,2.20
2018-07-21T02:40:59.309Z,2.10
2018-07-21T02:43:27.573Z,1.90
2018-07-21T02:45:55.743Z,1.90
2018-07-21T02:48:24.152Z,1.90
2018-07-21T02:50:52.455Z,2.00
2018-07-21T02:53:20.756Z,2.30
2018-07-21T02:55:49.058Z,2.00
2018-07-21T02:58:17.213Z,1.63
2018-07-21T03:00:45.546Z,2.00
2018-07-21T03:03:13.848Z,2.23
2018-07-21T03:05:42.169Z,2.17
2018-07-21T03:08:10.469Z,1.93
2018-07-21T03:10:38.792Z,1.90
2018-07-21T03:13:07.075Z,2.10
2018-07-21T03:15:35.176Z,2.00
2018-07-21T03:18:03.571Z,1.90
2018-07-21T03:20:31.962Z,2.00
2018-07-21T03:23:00.237Z,2.00
2018-07-21T03:25:28.543Z,2.07
2018-07-21T03:27:56.886Z,2.10
2018-07-21T03:30:25.191Z,1.80
2018-07-21T03:32:53.481Z,1.43
2018-07-21T03:35:21.819Z,1.80
2018-07-21T03:37:50.144Z,1.73
2018-07-21T03:40:18.475Z,1.90
2018-07-21T03:42:46.771Z,1.60
2018-07-21T03:45:15.130Z,1.97
2018-07-21T03:47:43.429Z,2.07
2018-07-21T03:50:11.722Z,1.97
2018-07-21T03:52:40.044Z,1.90
2018-07-21T03:55:08.420Z,1.80
2018-07-21T03:57:36.741Z,2.10
2018-07-21T04:00:05.587Z,1.70
2018-07-21T04:02:33.899Z,1.83
2018-07-21T04:05:02.271Z,1.80
2018-07-21T04:07:30.568Z,1.87
2018-07-21T04:09:58.886Z,1.73
2018-07-21T04:12:27.180Z,1.70
2018-07-21T04:14:55.487Z,1.80
2018-07-21T04:17:26.590Z,1.80
2018-07-21T04:19:55.748Z,1.70
2018-07-21T04:22:25.049Z,1.80
2018-07-21T04:24:53.623Z,2.07
2018-07-21T04:27:22.316Z,1.63
2018-07-21T04:29:51.102Z,1.90
2018-07-21T04:32:19.413Z,1.50
2018-07-21T04:34:47.719Z,1.87
2018-07-21T04:37:16.005Z,1.70
2018-07-21T04:39:44.402Z,1.80
2018-07-21T04:42:12.739Z,1.80
2018-07-21T04:44:41.038Z,1.70
2018-07-21T04:47:09.534Z,1.70
2018-07-21T04:49:37.854Z,1.97
2018-07-21T04:52:06.410Z,1.60
2018-07-21T04:54:34.707Z,1.63
2018-07-21T04:57:03.027Z,1.53
2018-07-21T04:59:31.316Z,1.73
2018-07-21T05:01:59.626Z,1.57
2018-07-21T05:04:27.939Z,1.57
2018-07-21T05:06:56.287Z,1.70
2018-07-21T05:09:24.574Z,1.40
2018-07-21T05:11:52.890Z,1.70
2018-07-21T05:14:21.183Z,1.77
2018-07-21T05:16:49.495Z,1.53
2018-07-21T05:19:17.805Z,1.73
2018-07-21T05:21:46.109Z,1.73
2018-07-21T05:24:14.393Z,1.53
2018-07-21T05:26:42.731Z,1.77
2018-07-21T05:29:11.015Z,1.40
2018-07-21T05:31:39.374Z,1.93
2018-07-21T05:34:07.521Z,1.50
2018-07-21T05:36:35.838Z,1.60
2018-07-21T05:39:06.563Z,1.70
2018-07-21T05:41:34.876Z,1.23
2018-07-21T05:44:03.254Z,1.53
2018-07-21T05:46:31.538Z,1.30
2018-07-21T05:48:59.863Z,1.60
2018-07-21T05:51:28.147Z,1.40
2018-07-21T05:53:56.334Z,1.50
2018-07-21T05:56:24.621Z,1.47
2018-07-21T05:58:53.056Z,1.40
2018-07-21T06:01:21.355Z,1.57
2018-07-21T06:03:49.534Z,1.30
2018-07-21T06:06:18.074Z,1.60
2018-07-21T06:08:46.370Z,1.70
2018-07-21T06:11:14.688Z,1.50
2018-07-21T06:13:43.018Z,1.53
2018-07-21T06:16:11.406Z,1.70
2018-07-21T06:18:39.743Z,1.60
2018-07-21T06:21:08.038Z,1.50
2018-07-21T06:23:36.346Z,1.90
2018-07-21T06:26:04.882Z,1.60
2018-07-21T06:28:33.258Z,1.57
2018-07-21T06:31:01.691Z,1.40
2018-07-21T06:33:30.035Z,1.50
2018-07-21T06:35:58.343Z,1.50
2018-07-21T06:38:26.662Z,2.90
2018-07-21T06:40:54.935Z,2.33
2018-07-21T06:43:23.249Z,21.93
2018-07-21T06:45:51.569Z,4.93
2018-07-21T06:48:19.881Z,7.17
2018-07-21T06:50:48.247Z,10.63
2018-07-21T06:53:16.588Z,9.43
2018-07-21T06:55:44.902Z,8.87
2018-07-21T06:58:13.284Z,9.27
2018-07-21T07:00:41.678Z,9.80
2018-07-21T07:03:10.212Z,9.07
2018-07-21T07:05:38.383Z,16.17
2018-07-21T07:08:06.851Z,16.67
2018-07-21T07:10:35.184Z,14.20
2018-07-21T07:13:03.491Z,10.40
2018-07-21T07:15:31.823Z,8.40
2018-07-21T07:18:00.125Z,7.93
2018-07-21T07:20:28.493Z,4.70
2018-07-21T07:22:56.923Z,3.93
2018-07-21T07:25:25.280Z,3.43
2018-07-21T07:27:53.602Z,3.27
2018-07-21T07:30:21.691Z,2.53
2018-07-21T07:32:49.987Z,5.13
2018-07-21T07:35:20.349Z,2.97
2018-07-21T07:37:48.654Z,2.40
2018-07-21T07:40:16.963Z,10.10
2018-07-21T07:42:45.347Z,9.17
2018-07-21T07:45:13.722Z,5.73
2018-07-21T07:47:42.091Z,4.53
2018-07-21T07:50:10.390Z,4.30
2018-07-21T07:52:38.779Z,3.93
2018-07-21T07:55:07.270Z,3.60
2018-07-21T07:57:35.570Z,3.67
2018-07-21T08:00:04.420Z,3.50
2018-07-21T08:02:32.719Z,3.03
2018-07-21T08:05:01.050Z,3.30
2018-07-21T08:07:29.374Z,2.30
2018-07-21T08:09:58.743Z,2.40
2018-07-21T08:12:27.042Z,2.60
2018-07-21T08:14:58.024Z,2.80
2018-07-21T08:17:26.323Z,2.60
2018-07-21T08:19:54.735Z,5.30
2018-07-21T08:22:23.101Z,3.87
2018-07-21T08:24:51.448Z,7.27
2018-07-21T08:27:19.774Z,10.87
2018-07-21T08:29:48.060Z,6.53
2018-07-21T08:32:16.364Z,7.80
2018-07-21T08:34:44.889Z,7.83
2018-07-21T08:37:13.262Z,6.87
2018-07-21T08:39:41.550Z,6.07
2018-07-21T08:42:10.966Z,3.67
2018-07-21T08:44:39.278Z,3.63
2018-07-21T08:47:07.840Z,3.20
2018-07-21T08:49:36.122Z,4.63
2018-07-21T08:52:04.438Z,3.67
2018-07-21T08:54:32.757Z,3.27
2018-07-21T08:57:01.039Z,4.03
2018-07-21T08:59:29.442Z,8.27
2018-07-21T09:01:57.768Z,13.07
2018-07-21T09:04:26.064Z,41.67
2018-07-21T09:06:54.382Z,11.40
2018-07-21T09:09:22.693Z,13.33
2018-07-21T09:11:51.083Z,13.23
2018-07-21T09:14:19.403Z,13.00
2018-07-21T09:16:47.719Z,13.37
2018-07-21T09:19:16.118Z,11.50
2018-07-21T09:21:45.285Z,11.20
2018-07-21T09:24:13.714Z,11.90
2018-07-21T09:26:42.191Z,10.90
2018-07-21T09:29:10.544Z,9.50
2018-07-21T09:31:39.163Z,9.37
2018-07-21T09:34:09.256Z,8.73
2018-07-21T09:36:37.511Z,9.23
2018-07-21T09:39:07.568Z,8.40
2018-07-21T09:41:35.880Z,7.83
2018-07-21T09:44:03.957Z,17.57
2018-07-21T09:46:32.315Z,25.17
2018-07-21T09:49:00.694Z,26.43
2018-07-21T09:51:29.014Z,13.40
2018-07-21T09:53:57.472Z,14.23
2018-07-21T09:56:25.514Z,16.10
2018-07-21T09:58:53.828Z,27.23
2018-07-21T10:01:22.202Z,102.40
2018-07-21T10:03:50.562Z,50.93
2018-07-21T10:06:18.894Z,51.73
2018-07-21T10:08:47.211Z,40.80
2018-07-21T10:11:15.300Z,41.70
2018-07-21T10:13:43.739Z,38.60
2018-07-21T10:16:12.067Z,37.37
2018-07-21T10:18:40.391Z,34.27
2018-07-21T10:21:08.706Z,30.83
2018-07-21T10:23:37.042Z,33.03
2018-07-21T10:26:10.962Z,34.43
2018-07-21T10:28:44.765Z,28.93
2018-07-21T10:31:13.107Z,24.73
2018-07-21T10:33:41.523Z,22.13
2018-07-21T10:36:09.748Z,21.37
2018-07-21T10:38:38.117Z,17.13
2018-07-21T10:41:06.398Z,17.97
2018-07-21T10:43:34.454Z,14.10
2018-07-21T10:46:02.761Z,12.93
2018-07-21T10:48:31.080Z,12.63
2018-07-21T10:50:59.413Z,9.93
2018-07-21T10:53:27.734Z,10.63
2018-07-21T10:55:56.096Z,9.20
2018-07-21T10:58:24.386Z,10.27
2018-07-21T11:00:52.731Z,9.20
2018-07-21T11:03:21.035Z,9.90
2018-07-21T11:05:49.376Z,9.30
2018-07-21T11:08:17.678Z,8.47
2018-07-21T11:10:45.992Z,7.37
2018-07-21T11:13:14.368Z,7.83
2018-07-21T11:15:42.678Z,7.97
2018-07-21T11:18:10.982Z,7.03
2018-07-21T11:20:39.301Z,7.37
2018-07-21T11:23:07.661Z,7.43
2018-07-21T11:25:35.949Z,7.90
2018-07-21T11:28:04.311Z,6.97
2018-07-21T11:30:32.602Z,7.60
2018-07-21T11:33:00.939Z,6.17
2018-07-21T11:35:29.319Z,6.87
2018-07-21T11:37:57.513Z,6.57
2018-07-21T11:40:25.821Z,6.60
2018-07-21T11:42:54.111Z,8.13
2018-07-21T11:45:22.410Z,11.77
2018-07-21T11:47:50.751Z,8.77
2018-07-21T11:50:19.073Z,7.70
2018-07-21T11:52:47.454Z,7.90
2018-07-21T11:55:15.862Z,8.37
2018-07-21T11:57:44.212Z,7.13
2018-07-21T12:00:12.614Z,6.87
2018-07-21T12:02:40.911Z,6.77
2018-07-21T12:05:09.228Z,6.57
2018-07-21T12:07:37.650Z,6.63
2018-07-21T12:10:05.943Z,6.23
2018-07-21T12:12:34.422Z,5.77
2018-07-21T12:15:02.742Z,5.37
2018-07-21T12:17:31.058Z,5.90
2018-07-21T12:19:59.414Z,6.67
2018-07-21T12:22:27.743Z,5.27
2018-07-21T12:24:56.083Z,5.13
2018-07-21T12:27:24.403Z,5.20
2018-07-21T12:29:52.694Z,5.13
2018-07-21T12:32:21.042Z,5.37
2018-07-21T12:34:49.300Z,4.80
2018-07-21T12:37:17.611Z,4.80
2018-07-21T12:39:45.996Z,4.90
2018-07-21T12:42:14.322Z,4.37
2018-07-21T12:44:42.685Z,4.40
2018-07-21T12:47:11.019Z,4.60
2018-07-21T12:49:39.366Z,4.50
2018-07-21T12:52:07.691Z,4.67
2018-07-21T12:54:36.003Z,4.43
2018-07-21T12:57:04.390Z,3.93
2018-07-21T12:59:32.705Z,4.13
2018-07-21T13:02:01.019Z,3.97
2018-07-21T13:04:29.463Z,3.57
2018-07-21T13:06:57.855Z,4.70
2018-07-21T13:09:26.154Z,6.43
2018-07-21T13:11:54.198Z,5.07
2018-07-21T13:14:22.554Z,9.47
2018-07-21T13:16:50.843Z,8.70
2018-07-21T13:19:19.167Z,10.57
2018-07-21T13:21:47.466Z,10.03
2018-07-21T13:24:15.846Z,9.60
2018-07-21T13:26:43.861Z,9.10
2018-07-21T13:29:12.197Z,8.53
2018-07-21T13:31:40.530Z,9.23
2018-07-21T13:34:08.835Z,8.17
2018-07-21T13:36:37.150Z,7.67
2018-07-21T13:39:08.508Z,8.10
2018-07-21T13:41:36.810Z,11.47
2018-07-21T13:44:05.275Z,20.60
2018-07-21T13:46:33.775Z,12.20
2018-07-21T13:49:02.084Z,16.43
2018-07-21T13:51:31.233Z,18.93
2018-07-21T13:53:59.820Z,17.70
2018-07-21T13:56:28.932Z,18.93
2018-07-21T13:58:57.238Z,19.00
2018-07-21T14:01:25.561Z,19.03
2018-07-21T14:03:53.882Z,18.13
2018-07-21T14:06:22.191Z,16.50
2018-07-21T14:08:50.496Z,17.00
2018-07-21T14:11:18.870Z,17.37
2018-07-21T14:13:47.183Z,15.90
2018-07-21T14:16:15.499Z,16.10
2018-07-21T14:18:43.951Z,16.13
2018-07-21T14:21:12.303Z,15.40
2018-07-21T14:23:40.711Z,16.33
2018-07-21T14:26:09.031Z,16.23
2018-07-21T14:28:37.546Z,17.20
2018-07-21T14:31:05.902Z,27.07
2018-07-21T14:33:34.231Z,22.57
2018-07-21T14:36:02.693Z,22.60
2018-07-21T14:38:31.140Z,22.13
2018-07-21T14:40:59.457Z,24.30
2018-07-21T14:43:27.853Z,23.63
2018-07-21T14:45:56.178Z,20.50
2018-07-21T14:48:24.512Z,17.07
2018-07-21T14:50:52.819Z,16.43
2018-07-21T14:53:21.149Z,14.30
2018-07-21T14:55:49.557Z,14.23
2018-07-21T14:58:17.920Z,15.43
2018-07-21T15:00:46.246Z,24.67
2018-07-21T15:03:14.628Z,39.23
2018-07-21T15:05:42.963Z,30.27
2018-07-21T15:08:11.266Z,26.43
2018-07-21T15:10:39.642Z,20.60
2018-07-21T15:13:08.015Z,19.27
2018-07-21T15:15:36.313Z,16.80
2018-07-21T15:18:04.672Z,16.10
2018-07-21T15:20:32.950Z,14.27
2018-07-21T15:23:01.260Z,14.00
2018-07-21T15:25:29.570Z,12.37
2018-07-21T15:27:57.907Z,12.07
2018-07-21T15:30:26.222Z,12.10
2018-07-21T15:32:54.547Z,11.47
2018-07-21T15:35:22.865Z,11.00
2018-07-21T15:37:51.150Z,9.23
2018-07-21T15:40:19.521Z,9.30
2018-07-21T15:42:47.771Z,9.20
2018-07-21T15:45:16.066Z,8.23
2018-07-21T15:47:44.384Z,9.03
2018-07-21T15:50:12.723Z,8.17
2018-07-21T15:52:41.011Z,5.27
2018-07-21T15:55:09.417Z,5.63
2018-07-21T15:57:37.826Z,5.50
2018-07-21T16:00:06.398Z,5.17
2018-07-21T16:02:34.840Z,9.87
2018-07-21T16:05:03.195Z,21.23
2018-07-21T16:07:31.499Z,22.57
2018-07-21T16:09:59.826Z,18.57
2018-07-21T16:12:28.138Z,16.10
2018-07-21T16:15:03.865Z,15.20
2018-07-21T16:17:24.789Z,14.47
2018-07-21T16:19:53.730Z,14.80
2018-07-21T16:22:22.099Z,13.13
2018-07-21T16:24:50.351Z,12.43
2018-07-21T16:27:18.760Z,12.33
2018-07-21T16:29:47.077Z,11.63
2018-07-21T16:32:15.414Z,10.47
2018-07-21T16:34:44.073Z,11.67
2018-07-21T16:37:12.436Z,11.63
2018-07-21T16:39:41.306Z,11.67
2018-07-21T16:42:09.748Z,10.67
2018-07-21T16:44:38.250Z,11.20
2018-07-21T16:47:06.849Z,12.07
2018-07-21T16:49:35.169Z,12.47
2018-07-21T16:52:03.503Z,12.33
2018-07-21T16:54:31.818Z,9.93
2018-07-21T16:57:00.159Z,10.13
2018-07-21T16:59:28.466Z,10.33
2018-07-21T17:01:56.908Z,8.77
2018-07-21T17:04:25.183Z,8.40
2018-07-21T17:06:53.494Z,6.83
2018-07-21T17:09:21.804Z,6.33
2018-07-21T17:11:50.270Z,6.37
2018-07-21T17:14:18.609Z,6.53
2018-07-21T17:16:46.926Z,6.37
2018-07-21T17:19:15.246Z,5.73
2018-07-21T17:21:43.539Z,6.33
2018-07-21T17:24:11.839Z,6.23
2018-07-21T17:26:40.178Z,7.00
2018-07-21T17:29:08.476Z,6.53
2018-07-21T17:31:36.783Z,7.40
2018-07-21T17:34:05.190Z,7.40
2018-07-21T17:36:33.513Z,9.77
2018-07-21T17:39:01.816Z,10.63
2018-07-21T17:41:30.185Z,8.07
2018-07-21T17:43:58.443Z,7.47
2018-07-21T17:46:26.766Z,5.47
2018-07-21T17:48:55.048Z,5.20
2018-07-21T17:51:23.372Z,4.40
2018-07-21T17:53:51.653Z,4.60
2018-07-21T17:56:20.081Z,4.27
2018-07-21T17:58:48.443Z,4.07
2018-07-21T18:01:17.242Z,4.67
2018-07-21T18:03:45.583Z,3.40
2018-07-21T18:06:13.650Z,3.20
2018-07-21T18:08:41.958Z,3.00
2018-07-21T18:11:10.438Z,2.90
2018-07-21T18:13:38.819Z,3.53
2018-07-21T18:16:07.236Z,3.13
2018-07-21T18:18:35.266Z,3.10
2018-07-21T18:21:03.785Z,3.03
2018-07-21T18:23:32.975Z,3.00
2018-07-21T18:26:01.257Z,3.13
2018-07-21T18:28:30.161Z,3.70
2018-07-21T18:30:58.616Z,3.80
2018-07-21T18:33:26.984Z,3.30
2018-07-21T18:35:55.398Z,2.90
2018-07-21T18:38:28.983Z,3.00
2018-07-21T18:40:57.247Z,2.13
2018-07-21T18:43:25.399Z,2.10
2018-07-21T18:45:53.695Z,2.67
2018-07-21T18:48:22.084Z,2.40
2018-07-21T18:50:50.457Z,7.90
2018-07-21T18:53:18.867Z,9.90
2018-07-21T18:55:47.187Z,9.20
2018-07-21T18:58:15.614Z,8.33
2018-07-21T19:00:43.964Z,7.13
2018-07-21T19:03:12.362Z,6.50
2018-07-21T19:05:40.771Z,6.40
2018-07-21T19:08:12.692Z,6.90
2018-07-21T19:10:41.154Z,6.50
2018-07-21T19:13:09.471Z,6.37
2018-07-21T19:15:43.172Z,4.80
2018-07-21T19:18:11.508Z,3.90
2018-07-21T19:20:45.673Z,2.80
2018-07-21T19:23:14.055Z,3.07
2018-07-21T19:25:47.823Z,2.60
2018-07-21T19:28:16.218Z,4.10
2018-07-21T19:30:44.559Z,5.00
2018-07-21T19:33:12.995Z,5.53
2018-07-21T19:35:41.335Z,5.27
2018-07-21T19:38:09.688Z,15.03
2018-07-21T19:40:38.138Z,20.03
2018-07-21T19:43:06.259Z,14.20
2018-07-21T19:45:34.944Z,9.03
2018-07-21T19:48:03.347Z,4.97
2018-07-21T19:50:31.937Z,4.37
2018-07-21T19:53:00.313Z,2.30
2018-07-21T19:55:28.699Z,1.67
2018-07-21T19:57:57.076Z,1.40
2018-07-21T20:00:25.431Z,1.83
2018-07-21T20:02:53.827Z,3.00
2018-07-21T20:05:22.353Z,3.80
2018-07-21T20:07:50.767Z,3.67
2018-07-21T20:10:19.124Z,2.80
2018-07-21T20:12:47.239Z,2.10
2018-07-21T20:15:15.608Z,1.70
2018-07-21T20:17:43.993Z,1.70
2018-07-21T20:20:12.341Z,1.57
2018-07-21T20:22:40.497Z,1.50
2018-07-21T20:25:08.833Z,1.40
2018-07-21T20:27:37.164Z,1.33
2018-07-21T20:30:05.789Z,1.13
2018-07-21T20:32:34.127Z,1.40
2018-07-21T20:35:02.675Z,1.40
2018-07-21T20:37:31.103Z,1.37
2018-07-21T20:39:59.480Z,9.30
2018-07-21T20:42:27.538Z,5.53
2018-07-21T20:44:55.916Z,4.00
2018-07-21T20:47:24.334Z,3.13
2018-07-21T20:49:52.675Z,2.20
2018-07-21T20:52:21.004Z,2.00
2018-07-21T20:54:49.378Z,1.70
2018-07-21T20:57:17.777Z,1.97
2018-07-21T20:59:46.107Z,1.80
2018-07-21T21:02:14.761Z,11.77
2018-07-21T21:04:42.882Z,26.97
2018-07-21T21:07:11.508Z,10.77
2018-07-21T21:09:39.882Z,5.40
2018-07-21T21:12:08.288Z,3.40
2018-07-21T21:14:36.657Z,2.13
2018-07-21T21:17:05.222Z,1.50
2018-07-21T21:19:33.587Z,1.60
2018-07-21T21:22:02.030Z,1.70
2018-07-21T21:24:30.366Z,1.73
2018-07-21T21:26:58.510Z,2.03
2018-07-21T21:29:26.899Z,11.23
2018-07-21T21:31:55.238Z,18.20
2018-07-21T21:34:23.626Z,7.40
2018-07-21T21:36:51.942Z,4.03
2018-07-21T21:39:20.278Z,2.97
2018-07-21T21:41:48.657Z,2.50
2018-07-21T21:44:16.982Z,2.30
2018-07-21T21:46:45.312Z,2.23
2018-07-21T21:49:13.634Z,2.40
2018-07-21T21:51:41.999Z,2.77
2018-07-21T21:54:10.349Z,3.13
2018-07-21T21:56:38.406Z,2.63
2018-07-21T21:59:06.802Z,2.43
2018-07-21T22:01:35.141Z,2.10
2018-07-21T22:04:03.466Z,6.27
2018-07-21T22:06:31.879Z,20.10
2018-07-21T22:09:00.210Z,7.30
2018-07-21T22:11:28.714Z,4.03
2018-07-21T22:13:57.220Z,3.77
2018-07-21T22:16:25.528Z,3.87
2018-07-21T22:18:53.932Z,3.50
2018-07-21T22:21:22.359Z,3.63
2018-07-21T22:23:50.706Z,3.83
2018-07-21T22:26:19.167Z,4.00
2018-07-21T22:28:47.648Z,3.60
2018-07-21T22:31:16.040Z,3.40
2018-07-21T22:33:44.462Z,3.30
2018-07-21T22:36:12.807Z,3.53
2018-07-21T22:38:41.194Z,4.00
2018-07-21T22:41:09.615Z,4.00
2018-07-21T22:43:37.898Z,4.63
2018-07-21T22:46:06.262Z,6.97
2018-07-21T22:48:34.615Z,6.93
2018-07-21T22:51:02.906Z,6.57
2018-07-21T22:53:31.235Z,4.97
2018-07-21T22:55:59.556Z,4.40
2018-07-21T22:58:27.879Z,4.97
2018-07-21T23:00:56.302Z,4.23
2018-07-21T23:03:24.698Z,4.40
2018-07-21T23:05:53.017Z,4.60
2018-07-21T23:08:21.342Z,4.37
2018-07-21T23:10:49.636Z,4.77
2018-07-21T23:13:17.962Z,4.13
2018-07-21T23:15:46.268Z,4.00
2018-07-21T23:18:14.579Z,3.90
2018-07-21T23:20:42.868Z,4.60
2018-07-21T23:23:11.182Z,5.03
2018-07-21T23:25:39.506Z,9.30
2018-07-21T23:28:07.821Z,5.37
2018-07-21T23:30:36.155Z,4.57
2018-07-21T23:33:04.463Z,6.87
2018-07-21T23:35:32.778Z,4.43
2018-07-21T23:38:01.083Z,5.87
2018-07-21T23:40:29.427Z,5.60
2018-07-21T23:42:57.783Z,14.27
2018-07-21T23:45:26.150Z,5.47
2018-07-21T23:47:54.458Z,4.80
2018-07-21T23:50:22.782Z,7.30
2018-07-21T23:52:51.059Z,7.53
2018-07-21T23:55:19.284Z,6.90
2018-07-21T23:57:47.582Z,6.07
